Terminal Aerodrome Forecast
Issued by NWS

Current Version | Previous Version | Text Only | Print | Product List | Glossary On
Versions: 1 2 3 4 5 6 7 8 9 10 11 12 13
000
FTUS44 KCRP 261842 AAA
TAFLRD
TAF AMD
KLRD 261842Z 2619/2718 VRB05KT P6SM VCTS SCT040CB BKN200
      TEMPO 2619/2623 TSRA SCT040CB
     FM262300 09014KT P6SM VCTS SCT060CB BKN200
     FM270500 13015G20KT P6SM FEW080 BKN200
     FM270800 11008KT P6SM FEW020 BKN200=

USA.gov is the U.S. government's official web portal to all federal, state and local government web resources and services.